SQ5DCP-1 Weather Reports


Display with metric or nautical units.
time (UTC)temp
F
wind
direction
speed
MPH
gust
MPH
rain 1hr
in
rain 24hr
in
rain mn
in
humidity
%
barometer
mb
20180622145042 64 299 6.0 12.0 0.00 0.16 0.00 41 1014.1
20180622144540 64 260 6.0 13.0 0.00 0.16 0.00 42 1014.1
20180622144037 63 306 5.0 13.0 0.00 0.16 0.00 42 1014.1
20180622143536 63 292 8.0 13.0 0.00 0.16 0.00 42 1014.1
20180622143032 64 284 8.0 14.0 0.00 0.16 0.00 41 1014.0
20180622142531 64 280 8.0 17.0 0.00 0.16 0.00 40 1014.0
20180622142027 64 272 7.0 16.0 0.00 0.16 0.00 40 1014.2
20180622141555 64 273 9.0 16.0 0.00 0.16 0.00 41 1014.1
20180622141051 64 271 5.0 9.0 0.00 0.16 0.00 42 1014.1
20180622140550 64 262 6.0 12.0 0.00 0.16 0.00 41 1014.2
20180622140048 64 261 6.0 12.0 0.00 0.16 0.00 41 1014.3
20180622135546 64 286 8.0 14.0 0.00 0.16 0.00 41 1014.2
20180622135044 63 263 6.0 13.0 0.00 0.16 0.00 41 1014.2
20180622134542 64 273 8.0 14.0 0.00 0.16 0.00 41 1014.2
20180622134041 64 267 7.0 12.0 0.00 0.16 0.00 41 1014.2
20180622133539 64 256 7.0 12.0 0.00 0.16 0.00 41 1014.3
20180622133038 63 273 5.0 12.0 0.00 0.16 0.00 41 1014.3
20180622132537 63 272 7.0 13.0 0.00 0.16 0.00 40 1014.3
20180622132036 63 284 7.0 13.0 0.00 0.16 0.00 40 1014.3
20180622131534 64 270 7.0 13.0 0.00 0.16 0.00 39 1014.3
20180622131033 64 282 7.0 16.0 0.00 0.16 0.00 40 1014.4
20180622130532 64 263 7.0 17.0 0.00 0.16 0.00 40 1014.5
20180622130031 64 290 5.0 10.0 0.00 0.16 0.00 41 1014.5
20180622125530 63 272 5.0 12.0 0.00 0.16 0.00 41 1014.5
20180622125029 63 280 8.0 14.0 0.00 0.16 0.00 42 1014.5
20180622124528 63 278 6.0 13.0 0.00 0.16 0.00 42 1014.4
20180622124025 63 268 8.0 19.0 0.00 0.16 0.00 42 1014.3
20180622123524 63 260 5.0 12.0 0.00 0.16 0.00 42 1014.3
20180622123022 63 255 6.0 10.0 0.00 0.16 0.00 42 1014.3
20180622122521 62 262 9.0 16.0 0.00 0.16 0.00 42 1014.4
20180622122049 62 279 9.0 16.0 0.00 0.16 0.00 41 1014.5
20180622121548 63 269 8.0 16.0 0.00 0.16 0.00 41 1014.4
20180622121044 63 256 8.0 16.0 0.00 0.16 0.00 42 1014.4
20180622120544 63 291 7.0 17.0 0.00 0.16 0.00 42 1014.4
20180622120043 62 274 8.0 16.0 0.00 0.16 0.00 43 1014.5
20180622115540 62 265 5.0 10.0 0.00 0.16 0.00 42 1014.5
20180622115039 62 278 7.0 19.0 0.00 0.16 0.00 43 1014.5
20180622114537 62 253 6.0 12.0 0.00 0.16 0.00 43 1014.5
20180622114037 62 269 10.0 17.0 0.00 0.16 0.00 42 1014.4
20180622113533 62 265 8.0 20.0 0.00 0.16 0.00 43 1014.4
20180622113031 62 267 8.0 17.0 0.00 0.16 0.00 44 1014.5
20180622112529 62 279 7.0 12.0 0.00 0.16 0.00 45 1014.5
20180622112027 62 270 7.0 12.0 0.00 0.16 0.00 44 1014.4
20180622111557 62 276 7.0 13.0 0.00 0.16 0.00 45 1014.3
20180622111024 62 263 6.0 13.0 0.00 0.16 0.00 45 1014.4
20180622110553 62 266 10.0 17.0 0.00 0.16 0.00 45 1014.3
20180622110051 62 266 7.0 14.0 0.00 0.16 0.00 46 1014.2
20180622105550 62 260 4.0 10.0 0.00 0.16 0.00 47 1014.3
20180622105047 62 282 7.0 13.0 0.00 0.16 0.00 47 1014.3
20180622104545 62 261 8.0 19.0 0.00 0.16 0.00 46 1014.4
20180622104111 62 264 6.0 13.0 0.00 0.16 0.00 46 1014.5
20180622103539 63 248 9.0 17.0 0.00 0.16 0.00 47 1014.5
20180622103040 63 266 7.0 13.0 0.00 0.16 0.00 47 1014.6
20180622102536 62 243 6.0 14.0 0.00 0.16 0.00 47 1014.6
20180622102030 63 268 7.0 16.0 0.00 0.16 0.00 48 1014.6
20180622101528 63 259 9.0 17.0 0.00 0.16 0.00 47 1014.5
20180622101054 63 253 6.0 17.0 0.00 0.16 0.00 48 1014.4
20180622100523 63 281 7.0 14.0 0.00 0.16 0.00 47 1014.4
20180622100053 63 265 7.0 13.0 0.00 0.16 0.00 48 1014.3
20180622095551 63 260 9.0 19.0 0.00 0.16 0.00 48 1014.4
20180622095050 62 271 7.0 13.0 0.00 0.16 0.00 49 1014.4
20180622094520 62 262 6.0 10.0 0.00 0.16 0.00 50 1014.4
20180622094049 62 278 7.0 13.0 0.00 0.16 0.00 50 1014.4
20180622093548 62 258 6.0 13.0 0.00 0.16 0.00 50 1014.4
20180622093046 61 263 7.0 14.0 0.00 0.16 0.00 52 1014.4
20180622092042 60 263 7.0 13.0 0.00 0.16 0.00 52 1014.4
20180622091541 60 266 6.0 16.0 0.00 0.16 0.00 52 1014.4
20180622091037 60 260 6.0 16.0 0.00 0.16 0.00 53 1014.3
20180622090536 60 258 8.0 16.0 0.00 0.16 0.00 53 1014.2
20180622090035 60 259 8.0 16.0 0.00 0.16 0.00 53 1014.2
20180622085531 60 260 6.0 12.0 0.00 0.16 0.00 53 1014.1
20180622085031 60 268 8.0 16.0 0.00 0.16 0.00 53 1014.2
20180622084527 60 285 5.0 12.0 0.00 0.16 0.00 55 1014.1
20180622084057 60 283 5.0 10.0 0.00 0.16 0.00 55 1014.0
20180622083523 59 272 5.0 13.0 0.00 0.16 0.00 55 1014.0
20180622083052 59 264 6.0 12.0 0.00 0.16 0.00 56 1014.0
20180622082521 59 261 4.0 10.0 0.00 0.16 0.00 56 1014.1
20180622082047 59 290 7.0 13.0 0.00 0.16 0.00 57 1014.1
20180622081546 59 256 6.0 10.0 0.00 0.16 0.00 58 1014.0
20180622081045 58 261 5.0 10.0 0.00 0.16 0.00 58 1014.0
20180622080543 58 247 7.0 13.0 0.00 0.16 0.00 58 1014.0
20180622080041 58 260 6.0 12.0 0.00 0.16 0.00 58 1014.0
20180622075539 57 263 7.0 14.0 0.00 0.16 0.00 59 1013.9
20180622075037 57 280 6.0 12.0 0.00 0.16 0.00 59 1013.9
20180622074536 57 268 6.0 16.0 0.00 0.16 0.00 58 1014.0
20180622074032 57 271 8.0 16.0 0.00 0.16 0.00 59 1013.9
20180622073531 57 270 8.0 16.0 0.00 0.16 0.00 60 1013.9
20180622073029 56 255 9.0 16.0 0.00 0.16 0.00 60 1013.9
20180622072558 56 270 7.0 14.0 0.00 0.16 0.00 61 1013.8
20180622072026 56 286 5.0 10.0 0.00 0.16 0.00 61 1013.8
20180622071524 56 286 7.0 14.0 0.00 0.16 0.00 60 1013.8
20180622071022 56 279 10.0 17.0 0.00 0.16 0.00 61 1013.8
20180622070550 56 274 8.0 12.0 0.00 0.16 0.00 62 1013.7
20180622070045 56 246 7.0 12.0 0.00 0.16 0.00 63 1013.7
20180622065544 55 272 7.0 14.0 0.00 0.16 0.00 63 1013.7
20180622065043 55 296 8.0 14.0 0.00 0.16 0.00 64 1013.7
20180622064541 55 267 6.0 13.0 0.00 0.16 0.00 66 1013.6
20180622064037 54 252 5.0 16.0 0.00 0.16 0.00 67 1013.7
20180622063534 54 264 4.0 8.0 0.00 0.16 0.00 67 1013.7
20180622063033 54 266 6.0 12.0 0.00 0.16 0.00 67 1013.8
20180622062532 54 264 6.0 12.0 0.00 0.16 0.00 68 1013.8
20180622062031 53 277 5.0 10.0 0.00 0.16 0.00 68 1013.8
20180622061528 53 265 6.0 13.0 0.00 0.16 0.00 68 1013.8
20180622061028 53 261 5.0 9.0 0.00 0.16 0.00 68 1013.8
20180622060525 53 277 7.0 12.0 0.00 0.16 0.00 67 1013.8
20180622060024 53 263 7.0 14.0 0.00 0.16 0.00 68 1013.8
20180622055550 53 274 6.0 12.0 0.00 0.16 0.00 68 1013.7
20180622055019 53 270 5.0 10.0 0.00 0.16 0.00 68 1013.7
20180622054546 53 273 7.0 12.0 0.00 0.16 0.00 68 1013.7
20180622054045 53 274 8.0 14.0 0.00 0.16 0.00 68 1013.8
20180622053543 53 254 5.0 16.0 0.00 0.16 0.00 68 1013.9
20180622053042 53 275 7.0 14.0 0.00 0.16 0.00 68 1013.8
20180622052540 53 263 7.0 13.0 0.00 0.16 0.00 68 1013.8
20180622052038 53 273 7.0 16.0 0.00 0.16 0.00 69 1013.8
20180622051537 53 262 8.0 16.0 0.00 0.16 0.00 70 1013.8
20180622051036 53 267 6.0 13.0 0.00 0.16 0.00 70 1013.8
20180622050535 53 282 8.0 16.0 0.00 0.16 0.00 72 1013.8
20180622050034 53 251 6.0 13.0 0.00 0.16 0.00 72 1013.8
20180622045533 52 255 5.0 12.0 0.00 0.16 0.00 73 1013.8
20180622045103 52 266 6.0 10.0 0.00 0.16 0.00 73 1013.8
20180622044600 52 263 4.0 10.0 0.00 0.16 0.00 74 1013.8
20180622044029 51 256 4.0 12.0 0.00 0.16 0.00 74 1013.8
20180622043528 51 259 3.0 6.0 0.00 0.16 0.00 74 1013.8
20180622043026 51 264 4.0 8.0 0.00 0.16 0.00 74 1013.8
20180622042525 51 255 4.0 8.0 0.00 0.16 0.00 74 1013.8
20180622042054 51 260 4.0 9.0 0.00 0.16 0.00 74 1013.8
20180622041553 51 270 4.0 9.0 0.00 0.16 0.00 74 1013.8
20180622041050 51 251 4.0 10.0 0.00 0.16 0.00 74 1013.8
20180622040519 51 268 4.0 10.0 0.00 0.16 0.00 74 1013.8
20180622040047 51 263 3.0 9.0 0.00 0.16 0.00 74 1013.8
20180622035546 51 260 5.0 10.0 0.00 0.16 0.00 74 1013.8
20180622035042 51 263 5.0 9.0 0.00 0.16 0.00 74 1013.7
20180622034539 51 257 4.0 8.0 0.00 0.16 0.00 74 1013.6
20180622034038 51 274 6.0 12.0 0.00 0.16 0.00 74 1013.5
20180622033535 51 264 5.0 10.0 0.00 0.16 0.00 74 1013.5
20180622033035 51 272 4.0 8.0 0.00 0.16 0.00 74 1013.4
20180622032532 51 263 5.0 10.0 0.00 0.16 0.00 74 1013.3
20180622032031 51 261 6.0 10.0 0.00 0.16 0.00 74 1013.2
20180622031529 51 265 5.0 9.0 0.00 0.16 0.00 74 1013.1
20180622031027 51 262 5.0 9.0 0.00 0.16 0.00 74 1013.1
20180622030526 51 251 5.0 10.0 0.00 0.16 0.00 74 1012.9
20180622030025 51 261 5.0 9.0 0.00 0.16 0.00 74 1012.8
20180622025524 52 259 4.0 8.0 0.00 0.16 0.00 74 1012.8
20180622025020 52 261 4.0 10.0 0.00 0.16 0.00 74 1012.6
20180622024550 52 257 5.0 10.0 0.00 0.16 0.00 74 1012.6
20180622024047 52 261 5.0 10.0 0.00 0.16 0.00 74 1012.6
20180622023546 52 261 5.0 9.0 0.00 0.16 0.00 74 1012.6
20180622023044 52 253 5.0 12.0 0.00 0.16 0.00 74 1012.6
20180622022543 52 255 4.0 8.0 0.00 0.16 0.00 74 1012.6
20180622022042 52 264 4.0 9.0 0.00 0.16 0.00 74 1012.6
20180622021541 52 259 6.0 10.0 0.00 0.16 0.00 74 1012.6
20180622021040 52 258 6.0 9.0 0.00 0.16 0.00 75 1012.6
20180622020538 52 267 5.0 10.0 0.00 0.16 0.00 75 1012.5
20180622020035 52 253 5.0 8.0 0.00 0.16 0.00 75 1012.3
20180622015533 52 270 5.0 12.0 0.00 0.16 0.00 75 1012.4
20180622015032 52 247 4.0 9.0 0.00 0.16 0.00 75 1012.4
20180622014530 52 253 4.0 8.0 0.00 0.16 0.00 75 1012.4
20180622014028 52 263 5.0 12.0 0.00 0.16 0.00 75 1012.3
20180622013526 52 258 5.0 12.0 0.00 0.16 0.00 75 1012.3
20180622013023 53 248 5.0 8.0 0.00 0.16 0.00 76 1012.3
20180622012552 53 269 6.0 13.0 0.00 0.16 0.00 76 1012.2
20180622012051 53 264 4.0 12.0 0.00 0.16 0.00 76 1012.0
20180622011547 53 267 3.0 10.0 0.00 0.16 0.00 76 1012.0
20180622011046 53 250 5.0 12.0 0.00 0.16 0.00 77 1012.0
20180622010545 53 282 5.0 10.0 0.00 0.16 0.00 77 1011.9
20180622010044 53 256 6.0 10.0 0.00 0.16 0.00 77 1012.0
20180622005541 53 255 5.0 9.0 0.00 0.16 0.00 78 1012.0
20180622005040 53 290 6.0 12.0 0.00 0.16 0.00 78 1011.9
20180622004537 53 283 6.0 16.0 0.00 0.16 0.00 78 1011.9
20180622004036 53 261 5.0 10.0 0.00 0.16 0.00 79 1011.8
20180622003534 53 265 4.0 13.0 0.00 0.16 0.00 79 1011.9
20180622003032 53 262 3.0 6.0 0.00 0.16 0.00 79 1012.0
20180622002600 53 257 2.0 6.0 0.00 0.16 0.00 80 1011.9
20180622002059 53 268 3.0 9.0 0.00 0.16 0.00 80 1012.0
20180622001526 53 267 4.0 12.0 0.00 0.16 0.00 80 1012.1
20180622001055 53 269 4.0 8.0 0.00 0.16 0.00 80 1012.1
20180622000552 53 263 3.0 8.0 0.00 0.16 0.00 80 1012.1
20180622000051 53 262 3.0 8.0 0.00 0.16 0.00 80 1012.2
20180621235518 53 276 5.0 9.0 0.00 0.16 0.00 80 1012.1
20180621235017 53 275 5.0 9.0 0.00 0.16 0.00 81 1012.1
20180621234517 53 265 6.0 10.0 0.00 0.16 0.00 81 1012.1
20180621234046 53 277 5.0 9.0 0.00 0.16 0.00 81 1012.0
20180621233544 53 258 5.0 8.0 0.00 0.16 0.00 82 1012.0
20180621233113 53 285 6.0 12.0 0.00 0.16 0.00 82 1011.8
20180621232541 53 290 9.0 17.0 0.00 0.16 0.00 82 1011.7
20180621232040 53 258 7.0 14.0 0.00 0.16 0.00 83 1011.6
20180621231537 54 278 9.0 16.0 0.00 0.16 0.00 83 1011.5
20180621231036 54 289 9.0 13.0 0.00 0.16 0.00 84 1011.3
20180621230535 54 282 9.0 19.0 0.00 0.16 0.00 84 1011.2
20180621230034 55 266 10.0 14.0 0.00 0.16 0.00 85 1010.9
20180621225530 55 282 7.0 14.0 0.00 0.16 0.00 85 1010.9
20180621225029 55 270 5.0 13.0 0.00 0.16 0.00 85 1011.0
20180621224528 55 270 3.0 6.0 0.00 0.16 0.00 85 1010.9
20180621224027 55 257 2.0 6.0 0.00 0.16 0.00 84 1011.0
20180621223527 55 284 2.0 5.0 0.00 0.16 0.00 84 1011.0
20180621223026 55 271 2.0 5.0 0.00 0.16 0.00 84 1011.0
20180621222525 55 249 2.0 6.0 0.00 0.16 0.00 84 1011.0
20180621222024 55 261 1.0 5.0 0.01 0.16 0.00 84 1010.9
20180621221523 55 262 3.0 5.0 0.01 0.16 0.00 84 1010.8
20180621221052 55 260 2.0 5.0 0.02 0.16 0.00 84 1010.6
20180621220550 55 283 2.0 5.0 0.02 0.16 0.00 84 1010.5
20180621220049 55 266 2.0 6.0 0.03 0.16 0.00 84 1010.7
20180621215546 55 262 3.0 6.0 0.04 0.16 0.16 83 1010.6
20180621215046 55 278 4.0 6.0 0.04 0.16 0.16 83 1010.5
20180621214545 55 288 3.0 8.0 0.06 0.16 0.16 83 1010.7
20180621214044 55 287 2.0 5.0 0.08 0.16 0.16 83 1010.6
20180621213543 55 260 2.0 4.0 0.10 0.16 0.16 82 1010.6
20180621213042 55 253 2.0 4.0 0.11 0.16 0.16 82 1010.8
20180621212542 55 250 2.0 5.0 0.13 0.16 0.16 82 1010.9
20180621212040 55 247 2.0 4.0 0.13 0.15 0.15 82 1010.8
20180621211539 55 251 1.0 2.0 0.13 0.15 0.15 82 1010.7
20180621211039 55 261 2.0 6.0 0.12 0.14 0.14 82 1010.6
20180621210538 55 282 4.0 9.0 0.12 0.14 0.14 82 1010.2
20180621210037 55 291 3.0 9.0 0.11 0.13 0.13 81 1009.8
20180621205536 55 306 5.0 12.0 0.10 0.12 0.12 81 1009.8
20180621205033 56 306 5.0 10.0 0.10 0.12 0.12 80 1009.9
20180621204532 56 265 4.0 8.0 0.08 0.10 0.10 79 1010.1
20180621204030 56 285 5.0 9.0 0.06 0.08 0.08 79 1010.3
20180621203529 57 293 4.0 10.0 0.04 0.06 0.06 78 1010.4
20180621203029 57 306 5.0 14.0 0.03 0.05 0.05 76 1010.4
20180621202526 58 281 4.0 12.0 0.01 0.03 0.03 75 1010.3
20180621202023 58 296 7.0 16.0 0.00 0.02 0.02 74 1010.2
20180621201523 59 257 6.0 14.0 0.00 0.02 0.02 73 1010.2
20180621201049 59 277 8.0 16.0 0.00 0.02 0.02 73 1010.1
20180621200549 59 291 6.0 14.0 0.01 0.02 0.02 73 1010.1
20180621200046 60 295 8.0 13.0 0.01 0.02 0.02 73 1010.2
20180621195545 60 262 4.0 10.0 0.01 0.02 0.02 73 1010.2
20180621195041 60 283 3.0 9.0 0.01 0.02 0.02 72 1009.9
20180621194539 61 329 5.0 12.0 0.01 0.02 0.02 72 1009.8
20180621194038 61 306 7.0 16.0 0.01 0.02 0.02 72 1009.7
20180621193534 62 279 6.0 13.0 0.02 0.02 0.02 73 1009.7
20180621193034 62 297 8.0 23.0 0.02 0.02 0.02 73 1009.5
20180621192531 62 265 9.0 21.0 0.02 0.02 0.02 75 1009.4
20180621192030 63 279 9.0 20.0 0.02 0.02 0.02 76 1009.1
20180621191526 63 263 11.0 21.0 0.02 0.02 0.02 76 1008.7
20180621191024 64 280 8.0 17.0 0.02 0.02 0.02 75 1008.3
20180621190523 65 273 9.0 16.0 0.01 0.01 0.01 74 1008.2
20180621190022 66 295 8.0 20.0 0.01 0.01 0.01 73 1007.9
20180621185521 68 286 10.0 25.0 0.01 0.01 0.01 72 1007.6
20180621185048 69 297 8.0 17.0 0.01 0.01 0.01 71 1007.4
20180621184548 70 277 11.0 21.0 0.01 0.01 0.01 68 1007.2
20180621184045 72 289 12.0 27.0 0.01 0.01 0.01 65 1007.1
20180621183544 73 296 12.0 30.0 0.00 0.00 0.00 59 1006.8
20180621183039 75 289 14.0 27.0 0.00 0.00 0.00 56 1006.5
20180621182539 75 284 13.0 27.0 0.00 0.00 0.00 54 1005.9
20180621182036 75 285 9.0 23.0 0.00 0.00 0.00 55 1005.4
20180621181535 75 234 3.0 6.0 0.00 0.00 0.00 55 1004.4
20180621181035 76 224 3.0 8.0 0.00 0.00 0.00 55 1004.3
20180621180534 78 186 4.0 12.0 0.00 0.00 0.00 53 1004.2
20180621180033 80 230 8.0 16.0 0.00 0.00 0.00 50 1004.5
20180621175533 81 229 10.0 23.0 0.00 0.00 0.00 49 1004.5
20180621175032 82 289 6.0 16.0 0.00 0.00 0.00 48 1004.4
20180621174529 82 156 1.0 5.0 0.00 0.00 0.00 48 1004.2
20180621174028 82 186 1.0 5.0 0.00 0.00 0.00 47 1004.2
20180621173526 82 177 3.0 6.0 0.00 0.00 0.00 47 1004.2
20180621173055 83 170 2.0 6.0 0.00 0.00 0.00 46 1004.2
20180621172553 83 166 4.0 6.0 0.00 0.00 0.00 45 1004.3
20180621172022 84 176 4.0 6.0 0.00 0.00 0.00 44 1004.3
20180621171519 84 159 3.0 8.0 0.00 0.00 0.00 44 1004.4
20180621171047 85 182 3.0 8.0 0.00 0.00 0.00 42 1004.6
20180621170544 86 195 5.0 10.0 0.00 0.00 0.00 43 1004.6
20180621170043 86 224 5.0 12.0 0.00 0.00 0.00 42 1004.6
20180621165540 87 223 5.0 14.0 0.00 0.00 0.00 42 1004.7
20180621165039 87 233 6.0 13.0 0.00 0.00 0.00 42 1004.7
20180621164536 86 221 4.0 13.0 0.00 0.00 0.00 42 1004.7
20180621164034 86 219 3.0 9.0 0.00 0.00 0.00 42 1004.7
20180621163533 86 223 5.0 9.0 0.00 0.00 0.00 42 1004.7
20180621163032 86 253 4.0 10.0 0.00 0.00 0.00 42 1004.8
20180621162529 86 229 3.0 9.0 0.00 0.00 0.00 41 1005.0
20180621162028 86 236 3.0 8.0 0.00 0.00 0.00 41 1005.0
20180621161522 87 229 5.0 13.0 0.00 0.00 0.00 40 1005.0
20180621161049 87 238 6.0 12.0 0.00 0.00 0.00 40 1005.1
20180621160548 88 246 5.0 12.0 0.00 0.00 0.00 40 1005.1
20180621160046 88 243 6.0 12.0 0.00 0.00 0.00 40 1005.1
20180621155545 88 238 5.0 12.0 0.00 0.00 0.00 39 1005.1
20180621155043 89 238 5.0 9.0 0.00 0.00 0.00 39 1005.1
20180621154540 89 239 7.0 10.0 0.00 0.00 0.00 39 1005.1
20180621154039 90 245 6.0 14.0 0.00 0.00 0.00 38 1005.1
20180621153538 90 240 5.0 12.0 0.00 0.00 0.00 39 1005.1
20180621153034 90 255 5.0 12.0 0.00 0.00 0.00 39 1005.1
20180621152531 90 244 5.0 10.0 0.00 0.00 0.00 39 1005.2
20180621152032 89 239 4.0 12.0 0.00 0.00 0.00 38 1005.3
20180621151558 90 214 7.0 14.0 0.00 0.00 0.00 38 1005.4
20180621151026 91 208 4.0 10.0 0.00 0.00 0.00 37 1005.5
20180621150525 91 207 4.0 10.0 0.00 0.00 0.00 36 1005.6
20180621150024 92 214 4.0 12.0 0.00 0.00 0.00 35 1005.6
20180621145523 92 207 6.0 12.0 0.00 0.00 0.00 37 1005.7